Time;durP1;ratioP1;P1;durP2;ratioP2;P2;SDS_P1;SDS_P2;PMS_P1;PMS_P2;Temp;Humidity;BMP_temperature;BMP_pressure;BME280_temperature;BME280_humidity;BME280_pressure;Samples;Min_cycle;Max_cycle;Signal;HPM_P1;HPM_P2
2022/09/01 00:01:57;;;;;;;2.07;1.90;;;;;;;15.33;66.12;65798.72;5115505;28;20213;-72
2022/09/01 00:04:27;;;;;;;1.43;1.33;;;;;;;;;;5113397;28;20223;-72
2022/09/01 00:06:54;;;;;;;1.27;1.27;;;;;;;15.34;66.17;65797.78;5114863;28;20208;-72
2022/09/01 00:09:22;;;;;;;1.67;1.57;;;;;;;15.28;66.28;65787.91;5114953;28;20213;-72
2022/09/01 00:11:52;;;;;;;7.23;1.77;;;;;;;15.24;66.42;65788.72;5114948;28;20197;-72
2022/09/01 00:14:29;;;;;;;1.80;1.70;;;;;;;15.26;66.63;65791.47;5113074;28;20220;-72
2022/09/01 00:17:00;;;;;;;1.97;1.87;;;;;;;;;;5114928;28;20721;-73
2022/09/01 00:19:26;;;;;;;1.93;1.93;;;;;;;15.24;66.66;65793.94;5114662;28;20243;-73
2022/09/01 00:21:53;;;;;;;2.10;2.10;;;;;;;15.30;66.26;65788.09;5114495;28;20248;-73
2022/09/01 00:24:19;;;;;;;1.80;1.70;;;;;;;15.22;66.83;65781.25;5112857;28;20217;-73
2022/09/01 00:26:46;;;;;;;6.80;1.70;;;;;;;15.22;66.93;65783.88;5114669;28;20241;-72
2022/09/01 00:29:13;;;;;;;2.00;1.90;;;;;;;15.17;67.15;65778.31;5114782;28;20230;-72
2022/09/01 00:31:40;;;;;;;2.27;2.27;;;;;;;15.13;67.24;65769.72;5113734;28;20190;-72
2022/09/01 00:34:06;;;;;;;2.53;2.53;;;;;;;15.12;67.37;65771.22;5095022;28;20193;-72
2022/09/01 00:36:33;;;;;;;1.70;1.70;;;;;;;15.10;67.76;65765.84;5095444;28;20270;-72
2022/09/01 00:39:00;;;;;;;1.53;1.53;;;;;;;15.11;67.73;65774.78;5096050;28;20188;-72
2022/09/01 00:41:32;;;;;;;2.67;1.97;;;;;;;15.06;67.82;65766.59;5095969;28;20213;-72
2022/09/01 00:44:04;;;;;;;2.00;2.00;;;;;;;15.06;67.98;65772.38;5094380;28;20217;-72
2022/09/01 00:46:36;;;;;;;1.97;1.97;;;;;;;;;;5114662;28;20654;-72
2022/09/01 00:49:17;;;;;;;2.27;2.17;;;;;;;14.97;68.29;65759.22;5093014;28;20201;-72
2022/09/01 00:51:46;;;;;;;2.47;2.00;;;;;;;;;;5114058;28;20216;-72
2022/09/01 00:54:23;;;;;;;2.13;2.00;;;;;;;14.99;68.28;65753.59;5095141;28;20723;-72
2022/09/01 00:56:49;;;;;;;4.43;2.47;;;;;;;14.93;68.96;65754.75;5095719;28;20208;-72
2022/09/01 00:59:25;;;;;;;2.10;2.10;;;;;;;14.96;68.76;65761.28;5095047;28;20832;-72
2022/09/01 01:01:53;;;;;;;1.90;1.80;;;;;;;14.97;68.83;65751.38;5113878;28;20254;-72
2022/09/01 01:04:20;;;;;;;1.70;1.60;;;;;;;14.96;68.96;65752.88;5095766;28;20240;-72
2022/09/01 01:06:57;;;;;;;2.40;2.40;;;;;;;14.95;68.87;65749.16;5114352;28;20209;-72
2022/09/01 01:09:26;;;;;;;5.30;1.80;;;;;;;14.91;69.06;65744.69;5094736;28;20208;-72
2022/09/01 01:11:52;;;;;;;1.37;1.37;;;;;;;;;;5095446;28;20592;-72
2022/09/01 01:14:18;;;;;;;2.27;2.27;;;;;;;;;;5114073;28;20201;-72
2022/09/01 01:16:50;;;;;;;2.00;2.00;;;;;;;14.78;69.48;65743.84;5113725;28;20698;-72
2022/09/01 01:24:57;;;;;;;2.47;2.43;;;;;;;14.65;69.46;65718.94;5095499;28;20215;-72
2022/09/01 01:27:24;;;;;;;2.97;2.47;;;;;;;;;;5095509;28;20280;-72
2022/09/01 01:29:51;;;;;;;2.20;2.20;;;;;;;14.54;69.90;65707.81;5091269;28;20197;-71
2022/09/01 01:32:19;;;;;;;1.80;1.80;;;;;;;14.47;70.23;65707.88;5095465;28;20177;-72
2022/09/01 01:34:46;;;;;;;3.90;1.90;;;;;;;14.44;70.36;65711.78;5114055;28;20222;-72
2022/09/01 01:37:14;;;;;;;4.73;2.33;;;;;;;;;;5095364;28;20217;-72
2022/09/01 01:39:41;;;;;;;4.17;2.20;;;;;;;;;;5094270;28;20254;-72
2022/09/01 01:42:09;;;;;;;2.27;2.17;;;;;;;14.25;70.68;65678.16;5113546;28;20213;-72
2022/09/01 01:44:37;;;;;;;1.97;1.83;;;;;;;14.18;70.92;65675.59;5100176;28;20196;-72
2022/09/01 01:47:07;;;;;;;1.50;1.50;;;;;;;14.16;71.04;65666.09;5098474;28;20220;-72
2022/09/01 01:49:34;;;;;;;3.70;2.50;;;;;;;;;;5098188;28;20231;-71
2022/09/01 01:52:01;;;;;;;2.20;2.20;;;;;;;14.16;71.38;65665.53;5117146;28;20201;-70
2022/09/01 01:54:31;;;;;;;2.23;2.23;;;;;;;14.05;71.80;65654.41;5099146;28;20224;-72
2022/09/01 01:56:59;;;;;;;2.30;2.30;;;;;;;13.96;72.05;65641.78;5117888;28;20212;-71
2022/09/01 01:59:28;;;;;;;2.13;2.13;;;;;;;13.93;72.13;65656.75;5098344;28;20219;-71
2022/09/01 02:01:55;;;;;;;5.03;1.90;;;;;;;13.90;72.35;65637.72;5098938;28;20237;-72
2022/09/01 02:04:22;;;;;;;2.00;2.00;;;;;;;;;;5117268;28;20185;-72
2022/09/01 02:06:51;;;;;;;1.60;1.60;;;;;;;13.78;72.97;65640.03;5098897;28;20301;-72
2022/09/01 02:09:20;;;;;;;2.20;2.10;;;;;;;13.77;72.89;65626.44;5097815;28;20693;-71
2022/09/01 02:11:46;;;;;;;4.23;2.57;;;;;;;13.74;73.03;65622.56;5099178;28;20587;-72
2022/09/01 02:14:15;;;;;;;2.33;2.23;;;;;;;13.74;73.19;65622.56;5097181;28;20658;-71
2022/09/01 02:16:42;;;;;;;2.10;2.10;;;;;;;13.63;73.61;65605.09;5098349;28;20213;-71
2022/09/01 02:19:11;;;;;;;1.80;1.80;;;;;;;13.57;74.06;65601.59;5114262;28;20684;-70
2022/09/01 02:21:42;;;;;;;2.23;2.23;;;;;;;13.60;73.83;65609.59;5116852;28;20209;-72
2022/09/01 02:24:09;;;;;;;2.63;2.53;;;;;;;13.57;74.00;65606.81;5098718;28;20173;-72
2022/09/01 02:26:40;;;;;;;2.47;2.47;;;;;;;13.58;74.14;65612.59;5117074;28;20254;-71
2022/09/01 02:29:17;;;;;;;2.50;2.50;;;;;;;13.54;74.42;65600.34;5097797;28;20181;-71
2022/09/01 02:31:45;;;;;;;2.37;2.37;;;;;;;;;;5117323;28;20161;-72
2022/09/01 02:34:12;;;;;;;5.93;2.10;;;;;;;13.55;74.52;65596.22;5116986;28;20558;-72
2022/09/01 02:36:48;;;;;;;10.53;2.40;;;;;;;13.49;74.54;65593.28;5098286;28;20209;-71
2022/09/01 02:39:25;;;;;;;2.50;2.40;;;;;;;13.44;74.80;65587.16;5098393;28;20204;-71
2022/09/01 02:41:52;;;;;;;2.27;2.20;;;;;;;13.31;75.62;65577.94;5098281;28;20251;-71
2022/09/01 02:44:23;;;;;;;2.07;1.97;;;;;;;13.25;75.91;65571.28;5098872;28;20196;-72
2022/09/01 02:46:49;;;;;;;2.10;2.10;;;;;;;13.29;75.86;65571.06;5080713;28;20282;-72
2022/09/01 02:49:27;;;;;;;2.27;2.20;;;;;;;13.24;76.07;65564.94;5097300;28;20228;-71
2022/09/01 02:52:00;;;;;;;2.93;1.87;;;;;;;13.26;76.09;65567.72;5098225;28;20231;-72
2022/09/01 02:54:29;;;;;;;2.17;2.17;;;;;;;13.23;76.31;65564.41;5097647;28;20196;-72
2022/09/01 02:56:56;;;;;;;2.17;2.17;;;;;;;13.16;76.85;65561.81;5098787;28;20213;-72
2022/09/01 02:59:26;;;;;;;2.23;2.23;;;;;;;13.14;77.07;65559.56;5097260;28;20243;-71
2022/09/01 03:01:56;;;;;;;3.60;2.53;;;;;;;13.00;77.82;65544.03;5098719;28;20205;-71
2022/09/01 03:04:23;;;;;;;2.13;2.13;;;;;;;13.02;77.87;65541.03;5114974;28;20238;-72
2022/09/01 03:06:53;;;;;;;2.97;2.53;;;;;;;13.04;77.87;65543.81;5114196;28;20208;-72
2022/09/01 03:09:21;;;;;;;2.77;2.53;;;;;;;12.98;78.16;65528.78;5097093;28;20607;-71
2022/09/01 03:11:51;;;;;;;2.30;2.30;;;;;;;12.95;78.37;65533.81;5115895;28;20196;-72
2022/09/01 03:14:18;;;;;;;10.03;1.90;;;;;;;12.93;78.50;65542.59;5115901;28;20234;-72
2022/09/01 03:16:45;;;;;;;3.60;2.73;;;;;;;12.82;79.39;65519.38;5097623;28;20217;-71
2022/09/01 03:19:13;;;;;;;2.30;2.30;;;;;;;12.89;79.11;65524.56;5096094;28;20667;-72
2022/09/01 03:21:42;;;;;;;3.07;2.60;;;;;;;12.82;79.58;65524.59;5080966;28;20209;-72
2022/09/01 03:24:13;;;;;;;2.63;2.63;;;;;;;12.80;79.71;65519.78;5097496;28;20224;-72
2022/09/01 03:26:42;;;;;;;2.60;2.60;;;;;;;12.74;79.91;65516.25;5097679;28;20304;-72
2022/09/01 03:29:08;;;;;;;3.10;2.33;;;;;;;12.77;79.99;65511.22;5094838;28;20247;-71
2022/09/01 03:31:36;;;;;;;2.63;2.50;;;;;;;12.74;79.91;65516.25;5097385;28;20232;-72
2022/09/01 03:34:04;;;;;;;2.73;2.73;;;;;;;12.77;79.87;65514.38;5097820;28;20193;-72
2022/09/01 03:36:35;;;;;;;2.30;2.30;;;;;;;12.75;80.13;65512.16;5097220;28;20216;-72
2022/09/01 03:39:02;;;;;;;2.93;2.60;;;;;;;12.67;80.58;65506.44;5114865;28;20174;-71
2022/09/01 03:41:31;;;;;;;2.57;2.37;;;;;;;12.66;81.03;65502.72;5097342;28;20671;-72
2022/09/01 03:43:58;;;;;;;2.57;2.47;;;;;;;12.59;81.16;65504.81;5097339;28;20647;-72
2022/09/01 03:46:32;;;;;;;2.40;2.40;;;;;;;12.54;81.53;65491.44;5096275;28;20651;-72
2022/09/01 03:49:06;;;;;;;2.80;2.70;;;;;;;12.51;81.66;65493.88;5096006;28;20181;-71
2022/09/01 03:51:37;;;;;;;2.70;2.43;;;;;;;12.59;81.40;65491.78;5097481;28;20217;-72
2022/09/01 03:54:04;;;;;;;2.47;2.47;;;;;;;12.54;81.57;65505.00;5093959;28;20280;-71
2022/09/01 03:56:31;;;;;;;3.43;2.87;;;;;;;12.49;81.96;65489.03;5096762;28;20239;-71
2022/09/01 03:58:59;;;;;;;2.60;2.50;;;;;;;12.43;82.25;65476.63;5096056;28;20189;-70
2022/09/01 04:01:30;;;;;;;9.73;2.73;;;;;;;12.38;82.21;65474.78;5095229;28;20245;-72
2022/09/01 04:03:57;;;;;;;4.07;2.63;;;;;;;12.36;82.50;65469.41;5097364;28;20189;-72
2022/09/01 04:06:29;;;;;;;2.83;2.63;;;;;;;12.29;82.90;65464.81;5093529;28;20204;-72
2022/09/01 04:09:01;;;;;;;2.63;2.63;;;;;;;12.32;82.49;65473.34;5094214;28;20197;-71
2022/09/01 04:11:32;;;;;;;2.30;2.30;;;;;;;12.34;82.56;65477.59;5089147;28;20227;-71
2022/09/01 04:13:59;;;;;;;6.40;2.90;;;;;;;12.36;82.34;65475.19;5088054;28;20207;-71
2022/09/01 04:19:24;;;;;;;2.77;2.77;;;;;;;12.23;82.99;65460.19;5093456;28;20247;-71
2022/09/01 04:21:55;;;;;;;3.80;2.70;;;;;;;12.19;83.05;65456.28;5096551;28;20211;-73
2022/09/01 04:24:26;;;;;;;2.70;2.70;;;;;;;12.18;83.26;65447.38;5102760;28;20185;-71
2022/09/01 04:26:57;;;;;;;2.73;2.60;;;;;;;12.12;83.44;65441.28;5095550;28;20217;-71
2022/09/01 04:29:27;;;;;;;3.27;3.13;;;;;;;12.12;83.61;65446.47;5092560;28;20185;-71
2022/09/01 04:32:00;;;;;;;9.03;3.23;;;;;;;12.04;83.99;65445.41;5094335;28;20551;-73
2022/09/01 04:34:35;;;;;;;3.43;3.03;;;;;;;12.08;83.88;65438.91;5095909;28;20666;-71
2022/09/01 04:37:07;;;;;;;6.03;3.03;;;;;;;12.08;83.88;65441.50;5088346;28;20213;-70
2022/09/01 04:39:35;;;;;;;3.03;2.63;;;;;;;12.00;84.10;65430.00;5090634;28;20189;-71
2022/09/01 04:42:07;;;;;;;3.00;2.90;;;;;;;11.93;84.37;65422.81;5114166;28;20197;-71
2022/09/01 04:44:35;;;;;;;4.93;2.73;;;;;;;11.92;84.39;65431.53;5092569;28;20204;-71
2022/09/01 04:47:04;;;;;;;2.47;2.47;;;;;;;11.84;84.67;65423.75;5105347;28;20215;-70
2022/09/01 04:49:32;;;;;;;2.70;2.63;;;;;;;11.80;84.98;65408.94;5107853;28;20282;-71
2022/09/01 04:51:59;;;;;;;2.93;2.83;;;;;;;11.83;85.05;65411.69;5090294;28;20598;-69
2022/09/01 04:54:26;;;;;;;2.77;2.77;;;;;;;11.88;84.92;65421.91;5095899;28;20687;-71
2022/09/01 04:56:53;;;;;;;2.97;2.87;;;;;;;11.89;84.91;65420.41;5095770;28;20212;-72
2022/09/01 04:59:23;;;;;;;3.97;2.80;;;;;;;11.83;85.04;65422.09;5096016;28;20217;-72
2022/09/01 05:01:54;;;;;;;2.67;2.67;;;;;;;11.85;85.00;65419.66;5088058;28;20212;-70
2022/09/01 05:04:23;;;;;;;2.93;2.70;;;;;;;11.83;84.97;65422.66;5093334;28;20217;-72
2022/09/01 05:06:59;;;;;;;3.10;2.53;;;;;;;11.80;85.53;65411.53;5096354;28;20208;-72
2022/09/01 05:09:37;;;;;;;3.70;3.50;;;;;;;11.84;85.10;65413.34;5093673;28;20202;-71
2022/09/01 05:12:20;;;;;;;2.97;2.87;;;;;;;11.95;84.90;65440.06;5111402;28;20205;-72
2022/09/01 05:14:47;;;;;;;6.30;2.50;;;;;;;;;;5096170;28;20193;-73
2022/09/01 05:17:18;;;;;;;4.47;3.50;;;;;;;11.96;85.03;65436.53;5113583;28;20233;-72
2022/09/01 05:19:47;;;;;;;3.17;2.97;;;;;;;12.01;84.52;65431.13;5093386;28;20291;-69
2022/09/01 05:22:20;;;;;;;3.40;3.10;;;;;;;11.97;85.33;65434.47;5094805;28;20723;-71
2022/09/01 05:25:10;;;;;;;5.00;3.10;;;;;;;12.07;84.83;65453.38;5095475;28;20193;-71
2022/09/01 05:27:40;;;;;;;8.60;3.27;;;;;;;12.17;84.64;65451.47;5095326;28;20755;-71
2022/09/01 05:30:07;;;;;;;2.70;2.50;;;;;;;12.23;84.65;65455.53;5094452;28;20186;-71
2022/09/01 05:32:38;;;;;;;2.60;2.60;;;;;;;12.33;84.27;65466.09;5095296;28;20193;-71
2022/09/01 05:35:07;;;;;;;3.87;2.50;;;;;;;12.48;83.74;65490.00;5113884;28;20173;-72
2022/09/01 05:37:36;;;;;;;8.50;2.73;;;;;;;12.54;83.17;65509.66;5093848;28;20215;-71
2022/09/01 05:40:05;;;;;;;2.73;2.63;;;;;;;12.57;83.08;65495.34;5094264;28;20199;-71
2022/09/01 05:42:36;;;;;;;2.93;2.93;;;;;;;12.61;82.96;65502.38;5093389;28;20207;-71
2022/09/01 05:45:03;;;;;;;3.23;3.23;;;;;;;12.81;82.54;65518.81;5113464;28;20656;-72
2022/09/01 05:47:29;;;;;;;3.47;3.27;;;;;;;12.86;82.29;65529.59;5095049;28;20217;-72
2022/09/01 05:49:57;;;;;;;3.60;3.50;;;;;;;12.92;81.95;65528.44;5092857;28;20189;-71
2022/09/01 05:52:25;;;;;;;3.53;2.23;;;;;;;13.04;81.40;65549.03;5095204;28;20607;-72
2022/09/01 05:54:52;;;;;;;3.70;2.30;;;;;;;;;;5095105;28;20620;-72
2022/09/01 05:57:19;;;;;;;2.63;2.53;;;;;;;;;;5095068;28;20209;-72
2022/09/01 06:00:09;;;;;;;2.50;2.50;;;;;;;13.21;81.29;65559.56;5095717;28;21078;-71
2022/09/01 06:02:39;;;;;;;2.93;2.90;;;;;;;13.32;80.69;65571.78;5104114;28;20197;-71
2022/09/01 06:05:07;;;;;;;4.93;2.80;;;;;;;13.40;79.90;65583.28;5084790;28;20189;-72
2022/09/01 06:07:39;;;;;;;4.63;2.20;;;;;;;13.35;80.17;65593.34;5114012;28;20262;-71
2022/09/01 06:10:06;;;;;;;2.63;2.53;;;;;;;13.47;79.69;65600.94;5091285;28;20675;-72
2022/09/01 06:12:33;;;;;;;5.13;2.30;;;;;;;13.55;79.36;65598.84;5095372;28;20215;-72
2022/09/01 06:15:00;;;;;;;3.00;2.80;;;;;;;13.59;79.72;65600.69;5095069;28;20560;-72
2022/09/01 06:17:27;;;;;;;2.27;2.17;;;;;;;;;;5094897;28;20212;-72
2022/09/01 06:19:57;;;;;;;2.93;2.73;;;;;;;13.71;78.65;65621.81;5092667;28;20300;-71
2022/09/01 06:22:26;;;;;;;3.60;2.50;;;;;;;13.83;78.85;65634.63;5094113;28;20212;-72
2022/09/01 06:24:58;;;;;;;3.00;2.80;;;;;;;13.85;78.39;65634.22;5094855;28;20189;-72
2022/09/01 06:27:37;;;;;;;7.73;2.70;;;;;;;13.96;78.41;65649.06;5093875;28;20240;-72
2022/09/01 06:30:13;;;;;;;5.23;2.17;;;;;;;14.03;77.84;65649.03;5095222;28;20592;-71
2022/09/01 06:32:43;;;;;;;2.60;2.60;;;;;;;14.09;77.23;65657.75;5096691;28;20200;-71
2022/09/01 06:35:11;;;;;;;3.13;2.83;;;;;;;14.09;76.94;65655.16;5097585;28;20193;-71
2022/09/01 06:37:38;;;;;;;2.93;2.93;;;;;;;;;;5096509;28;20686;-71
2022/09/01 06:40:15;;;;;;;2.93;2.93;;;;;;;;;;5097119;28;20250;-72
2022/09/01 06:42:46;;;;;;;6.80;2.70;;;;;;;14.26;76.89;65690.25;5097201;28;20686;-71
2022/09/01 06:45:16;;;;;;;3.07;2.87;;;;;;;14.30;76.53;65681.66;5098214;28;20280;-71
2022/09/01 06:47:43;;;;;;;2.93;2.73;;;;;;;;;;5096381;28;20336;-71
2022/09/01 06:50:14;;;;;;;2.00;2.00;;;;;;;14.49;75.72;65704.84;5098101;28;20185;-71
2022/09/01 06:53:09;;;;;;;2.47;2.47;;;;;;;14.63;76.07;65714.66;5098246;28;20169;-72
2022/09/01 06:55:56;;;;;;;3.03;2.83;;;;;;;14.76;75.13;65731.72;5096424;28;20283;-71
2022/09/01 06:58:24;;;;;;;3.30;3.30;;;;;;;14.84;74.90;65743.25;5095121;28;20209;-73
2022/09/01 07:00:51;;;;;;;2.80;2.80;;;;;;;14.91;74.99;65757.75;5096058;28;20633;-72
2022/09/01 07:03:18;;;;;;;3.30;3.20;;;;;;;15.07;75.08;65765.09;5093836;28;20197;-72
2022/09/01 07:06:04;;;;;;;4.57;3.27;;;;;;;15.13;73.56;65763.94;5094058;28;20192;-72
2022/09/01 07:09:00;;;;;;;2.87;2.77;;;;;;;15.25;74.29;65784.59;5054876;28;20214;-72
2022/09/01 07:12:12;;;;;;;1.90;1.77;;;;;;;15.40;73.88;65798.66;5096733;28;20563;-72
2022/09/01 07:14:56;;;;;;;2.37;2.37;;;;;;;;;;5096570;28;20217;-72
2022/09/01 07:17:50;;;;;;;5.83;3.20;;;;;;;15.55;72.55;65825.81;5097697;28;20208;-72
2022/09/01 07:20:21;;;;;;;2.70;2.70;;;;;;;15.64;71.96;65830.06;5095754;28;20646;-72
2022/09/01 07:22:54;;;;;;;8.03;2.63;;;;;;;15.83;71.29;65845.44;5094514;28;20593;-72
2022/09/01 07:25:40;;;;;;;3.80;2.40;;;;;;;;;;5094144;28;20280;-71
2022/09/01 07:28:54;;;;;;;6.93;2.60;;;;;;;15.82;70.80;65844.34;5105820;28;20344;-71
2022/09/01 07:31:37;;;;;;;3.03;2.83;;;;;;;;;;5096358;28;20189;-72
2022/09/01 07:34:25;;;;;;;2.60;2.60;;;;;;;16.05;70.30;65869.38;5095292;28;20177;-71
2022/09/01 07:37:09;;;;;;;2.40;2.23;;;;;;;16.12;69.63;65877.75;5111618;28;20211;-71
2022/09/01 07:39:57;;;;;;;6.80;2.43;;;;;;;16.27;70.16;65888.09;5100507;28;20195;-72
2022/09/01 07:43:06;;;;;;;4.30;2.80;;;;;;;16.44;69.35;65914.91;5115390;28;20196;-72
2022/09/01 07:45:54;;;;;;;3.40;1.97;;;;;;;;;;5115298;28;20305;-72
2022/09/01 07:48:27;;;;;;;7.20;1.90;;;;;;;16.66;69.19;65936.81;5115510;28;20301;-72
2022/09/01 07:51:17;;;;;;;2.00;1.90;;;;;;;16.77;68.01;65943.81;5111359;28;20189;-72
2022/09/01 07:54:02;;;;;;;2.33;2.23;;;;;;;;;;5102460;28;20284;-72
2022/09/01 07:56:29;;;;;;;2.10;1.40;;;;;;;17.08;65.88;65987.78;5111475;28;20188;-72
2022/09/01 07:58:57;;;;;;;3.20;2.03;;;;;;;17.02;65.54;65978.44;5092030;28;20197;-72
2022/09/01 08:01:26;;;;;;;2.10;1.63;;;;;;;17.10;65.39;65984.19;5097248;28;20193;-73
2022/09/01 08:03:56;;;;;;;1.83;1.77;;;;;;;17.20;64.88;65995.34;5095469;28;20247;-72
2022/09/01 08:06:25;;;;;;;7.47;1.60;;;;;;;17.36;64.26;66015.81;5096799;28;20200;-71
2022/09/01 08:08:56;;;;;;;2.33;2.13;;;;;;;17.38;63.13;66004.91;5095507;28;20221;-70
2022/09/01 08:11:25;;;;;;;1.90;1.90;;;;;;;;;;5110475;28;20670;-72
2022/09/01 08:14:12;;;;;;;1.83;1.83;;;;;;;17.59;63.93;66038.28;5080917;28;20195;-72
2022/09/01 08:16:38;;;;;;;7.40;1.57;;;;;;;17.77;63.33;66060.97;5113628;28;20220;-71
2022/09/01 08:19:22;;;;;;;1.97;1.77;;;;;;;;;;5096312;28;20181;-72
2022/09/01 08:23:26;;;;;;;1.53;1.43;;;;;;;18.02;61.76;66088.31;5114557;28;20206;-72
2022/09/01 08:25:53;;;;;;;1.40;1.40;;;;;;;18.11;60.23;66098.38;5079461;28;20192;-71
2022/09/01 08:28:19;;;;;;;1.83;1.73;;;;;;;18.07;59.83;66093.34;5096157;28;20209;-72
2022/09/01 08:30:52;;;;;;;1.50;1.50;;;;;;;18.21;59.60;66108.97;5114780;28;20181;-72
2022/09/01 08:33:21;;;;;;;4.53;1.40;;;;;;;18.24;59.85;66109.13;5096208;28;20189;-72
2022/09/01 08:35:48;;;;;;;1.17;1.17;;;;;;;;;;5095998;28;20194;-72
2022/09/01 08:38:15;;;;;;;1.20;1.20;;;;;;;;;;5096726;28;20578;-71
2022/09/01 08:40:51;;;;;;;1.30;1.30;;;;;;;18.20;58.83;66105.22;5096100;28;20226;-71
2022/09/01 08:44:03;;;;;;;1.73;1.73;;;;;;;18.34;59.64;66122.91;5095944;28;20208;-72
2022/09/01 08:46:36;;;;;;;1.47;1.47;;;;;;;;;;5071679;28;20197;-72
2022/09/01 08:49:18;;;;;;;1.80;1.30;;;;;;;18.44;56.86;66131.47;5087245;28;20208;-70
2022/09/01 08:52:25;;;;;;;1.87;1.87;;;;;;;;;;5107635;28;20195;-71
2022/09/01 08:54:59;;;;;;;1.40;1.40;;;;;;;;;;5094112;28;20715;-72
2022/09/01 08:57:30;;;;;;;1.03;1.03;;;;;;;;;;5094830;28;20219;-72
2022/09/01 09:00:27;;;;;;;2.00;1.77;;;;;;;;;;5112182;28;20195;-72
2022/09/01 09:03:29;;;;;;;3.53;1.00;;;;;;;18.87;56.79;66173.66;5092826;28;20250;-71
2022/09/01 09:06:06;;;;;;;0.93;0.93;;;;;;;;;;5108600;28;20192;-72
2022/09/01 09:08:32;;;;;;;2.30;1.47;;;;;;;;;;5111763;28;20612;-71
2022/09/01 09:11:24;;;;;;;1.43;1.17;;;;;;;19.12;56.54;66208.34;5113082;28;20204;-73
2022/09/01 09:14:05;;;;;;;2.13;1.20;;;;;;;;;;5113282;28;20605;-71
2022/09/01 09:16:36;;;;;;;2.40;1.10;;;;;;;;;;5113258;28;20292;-70
2022/09/01 09:19:10;;;;;;;1.57;1.57;;;;;;;19.31;54.01;66226.94;5112453;28;20234;-72
2022/09/01 09:21:39;;;;;;;3.80;2.23;;;;;;;19.27;54.34;66221.91;5114262;28;20214;-72
2022/09/01 09:24:11;;;;;;;1.00;1.00;;;;;;;;;;5112789;28;20227;-72
2022/09/01 09:26:50;;;;;;;5.73;2.83;;;;;;;19.35;54.15;66231.38;5113073;28;20292;-71
2022/09/01 09:29:16;;;;;;;1.20;1.20;;;;;;;19.42;54.48;66241.84;5113754;28;20189;-72
2022/09/01 09:31:47;;;;;;;1.67;1.50;;;;;;;19.56;54.49;66261.63;5095803;28;20178;-72
2022/09/01 09:34:36;;;;;;;1.20;1.20;;;;;;;19.65;53.41;66266.47;5114185;28;20173;-72
2022/09/01 09:37:20;;;;;;;1.00;1.00;;;;;;;19.60;52.81;66252.97;5112918;28;20301;-73
2022/09/01 09:40:01;;;;;;;1.20;1.20;;;;;;;;;;5112676;28;20181;-72
2022/09/01 09:42:28;;;;;;;2.10;1.00;;;;;;;;;;5109947;28;20227;-71
2022/09/01 09:45:03;;;;;;;0.90;0.90;;;;;;;19.63;52.15;66264.75;5111273;28;20197;-72
2022/09/01 09:47:35;;;;;;;1.53;1.10;;;;;;;;;;5109218;28;20258;-73
2022/09/01 09:50:16;;;;;;;1.00;1.00;;;;;;;;;;5110138;28;20605;-73
2022/09/01 09:52:45;;;;;;;1.27;1.27;;;;;;;;;;5111771;28;20235;-72
2022/09/01 09:55:28;;;;;;;0.93;0.93;;;;;;;19.91;52.06;66292.31;5110130;28;20201;-72
2022/09/01 09:58:07;;;;;;;0.93;0.93;;;;;;;19.92;51.14;66301.88;5108960;28;20247;-72
2022/09/01 10:00:34;;;;;;;1.90;1.90;;;;;;;;;;5113702;28;20230;-72
2022/09/01 10:03:03;;;;;;;2.10;1.37;;;;;;;;;;5113168;28;20219;-71
2022/09/01 10:05:38;;;;;;;1.20;1.20;;;;;;;19.89;51.76;66282.16;5117868;28;20676;-72
2022/09/01 10:08:13;;;;;;;1.10;1.10;;;;;;;19.87;51.12;66282.56;5117344;28;20568;-72
2022/09/01 10:10:44;;;;;;;13.87;1.20;;;;;;;19.90;51.27;66291.19;5117406;28;20185;-72
2022/09/01 10:13:23;;;;;;;1.20;1.20;;;;;;;;;;5099551;28;20543;-72
2022/09/01 10:15:55;;;;;;;3.60;1.53;;;;;;;20.02;52.10;66305.16;5117423;28;20652;-72
2022/09/01 10:18:26;;;;;;;1.40;1.40;;;;;;;20.18;51.51;66324.56;5117256;28;20200;-72
2022/09/01 10:21:07;;;;;;;8.90;1.40;;;;;;;20.26;50.99;66331.44;5117375;28;20553;-72
2022/09/01 10:23:36;;;;;;;1.23;1.23;;;;;;;;;;5117559;28;20200;-72
2022/09/01 10:26:12;;;;;;;1.00;1.00;;;;;;;20.10;52.27;66313.53;5116967;28;20185;-72
2022/09/01 10:28:45;;;;;;;1.20;1.10;;;;;;;;;;5115944;28;20274;-72
2022/09/01 10:31:16;;;;;;;1.80;0.80;;;;;;;20.30;51.70;66335.34;5110060;28;20560;-70
2022/09/01 10:33:43;;;;;;;0.97;0.97;;;;;;;;;;5116112;28;20193;-72
2022/09/01 10:36:13;;;;;;;1.20;1.20;;;;;;;20.47;50.85;66348.53;5114613;28;20192;-71
2022/09/01 10:38:41;;;;;;;1.17;1.17;;;;;;;20.32;52.10;66337.56;5116900;28;20192;-73
2022/09/01 10:41:42;;;;;;;1.77;1.17;;;;;;;20.31;51.38;66344.38;5115347;28;20193;-71
2022/09/01 10:44:32;;;;;;;1.30;1.30;;;;;;;;;;5115379;28;20197;-72
2022/09/01 10:47:28;;;;;;;14.17;1.47;;;;;;;20.33;52.22;66346.59;5114109;28;20702;-71
2022/09/01 10:49:59;;;;;;;1.23;1.23;;;;;;;20.47;51.36;66354.38;5104441;28;20284;-72
2022/09/01 10:52:42;;;;;;;1.20;1.20;;;;;;;20.59;51.00;66369.88;5110854;28;20178;-71
2022/09/01 10:55:20;;;;;;;1.17;1.17;;;;;;;20.56;51.48;66367.06;5108640;28;20595;-73
2022/09/01 10:57:56;;;;;;;1.50;1.40;;;;;;;20.48;52.05;66354.91;5110057;28;21086;-72
2022/09/01 11:00:46;;;;;;;1.13;1.13;;;;;;;20.39;51.08;66348.03;5112877;28;20280;-71
2022/09/01 11:03:48;;;;;;;1.40;1.30;;;;;;;;;;5112967;28;20618;-73
2022/09/01 11:06:32;;;;;;;1.40;1.40;;;;;;;20.50;52.72;66359.78;5107251;28;20595;-71
2022/09/01 11:09:01;;;;;;;4.13;1.67;;;;;;;;;;5111859;28;20197;-71
2022/09/01 11:11:50;;;;;;;1.57;1.57;;;;;;;20.63;51.37;66363.22;5111052;28;20205;-72
2022/09/01 11:14:20;;;;;;;1.63;1.53;;;;;;;20.70;51.81;66384.22;5115126;28;20242;-72
2022/09/01 11:17:23;;;;;;;1.20;1.20;;;;;;;20.88;52.43;66399.66;5115636;28;20247;-72
2022/09/01 11:19:55;;;;;;;1.70;1.70;;;;;;;;;;5114668;28;20730;-72
2022/09/01 11:22:31;;;;;;;1.53;1.33;;;;;;;20.96;50.84;66410.13;5111982;28;20250;-72
2022/09/01 11:25:05;;;;;;;1.47;1.47;;;;;;;;;;5106008;28;20227;-72
2022/09/01 11:27:46;;;;;;;1.03;1.03;;;;;;;;;;5115729;28;20207;-72
2022/09/01 11:30:16;;;;;;;1.50;1.50;;;;;;;;;;5113626;28;20727;-72
2022/09/01 11:32:46;;;;;;;2.50;1.53;;;;;;;21.27;50.43;66444.25;5115620;28;20178;-73
2022/09/01 11:35:20;;;;;;;1.63;1.63;;;;;;;;;;5115824;28;20230;-72
2022/09/01 11:37:53;;;;;;;1.30;1.30;;;;;;;21.07;51.19;66422.97;5113084;28;20215;-72
2022/09/01 11:40:25;;;;;;;1.33;1.33;;;;;;;;;;5107329;28;20185;-72
2022/09/01 11:43:00;;;;;;;1.90;1.20;;;;;;;;;;5111576;28;20201;-72
2022/09/01 11:45:32;;;;;;;1.80;1.70;;;;;;;21.09;50.15;66422.03;5109580;28;20213;-74
2022/09/01 11:48:06;;;;;;;1.20;1.20;;;;;;;;;;5113263;28;20219;-71
2022/09/01 11:50:34;;;;;;;1.93;1.33;;;;;;;;;;5114898;28;20692;-73
2022/09/01 11:53:07;;;;;;;1.93;1.50;;;;;;;21.17;51.49;66431.53;5115228;28;20177;-73
2022/09/01 11:55:40;;;;;;;1.60;1.60;;;;;;;21.12;51.32;66425.94;5115759;28;20234;-74
2022/09/01 11:58:11;;;;;;;1.50;1.50;;;;;;;;;;5115105;28;20205;-73
2022/09/01 12:00:43;;;;;;;1.40;1.40;;;;;;;21.03;50.22;66418.50;5115025;28;20203;-72
2022/09/01 12:03:23;;;;;;;2.33;1.43;;;;;;;;;;5115161;28;20259;-72
2022/09/01 12:06:00;;;;;;;2.00;1.60;;;;;;;;;;5111721;28;20246;-73
2022/09/01 12:08:29;;;;;;;1.30;1.30;;;;;;;;;;5108638;28;20217;-71
2022/09/01 12:11:19;;;;;;;1.70;1.70;;;;;;;21.07;50.08;66422.97;5114835;28;20201;-73
2022/09/01 12:13:59;;;;;;;1.80;1.80;;;;;;;;;;5114908;28;20173;-73
2022/09/01 12:16:28;;;;;;;1.80;1.80;;;;;;;21.27;50.25;66442.16;5114977;28;20234;-73
2022/09/01 12:18:55;;;;;;;4.53;1.73;;;;;;;;;;5114987;28;20726;-72
2022/09/01 12:21:24;;;;;;;1.77;1.77;;;;;;;;;;5114913;28;20190;-73
2022/09/01 12:23:51;;;;;;;2.43;1.80;;;;;;;21.23;49.94;66439.78;5114497;28;20233;-73
2022/09/01 12:26:24;;;;;;;1.30;1.30;;;;;;;21.20;50.08;66433.75;5114760;28;20185;-73
2022/09/01 12:28:51;;;;;;;1.87;1.87;;;;;;;;;;5114059;28;20219;-72
2022/09/01 12:31:20;;;;;;;1.90;1.80;;;;;;;;;;5114408;28;20250;-72
2022/09/01 12:33:47;;;;;;;1.83;1.73;;;;;;;;;;5114432;28;20185;-72
2022/09/01 12:36:30;;;;;;;1.63;1.53;;;;;;;21.38;49.72;66456.56;5114558;28;20180;-73
2022/09/01 12:39:16;;;;;;;1.83;1.80;;;;;;;21.24;49.50;66438.25;5114610;28;20177;-72
2022/09/01 12:41:45;;;;;;;1.93;1.93;;;;;;;21.24;50.83;66440.88;5114652;28;20199;-72
2022/09/01 12:44:33;;;;;;;2.20;1.50;;;;;;;21.35;49.55;66453.22;5114125;28;20209;-72
2022/09/01 12:47:09;;;;;;;1.47;1.47;;;;;;;21.27;49.77;66442.16;5114374;28;20217;-72
2022/09/01 12:49:41;;;;;;;1.80;1.80;;;;;;;21.35;49.49;66445.28;5114142;28;20623;-72
2022/09/01 12:52:17;;;;;;;2.93;2.13;;;;;;;;;;5114431;28;20180;-73